Time;durP1;ratioP1;P1;durP2;ratioP2;P2;SDS_P1;SDS_P2;PMS_P1;PMS_P2;Temp;Humidity;BMP_temperature;BMP_pressure;BME280_temperature;BME280_humidity;BME280_pressure;Samples;Min_cycle;Max_cycle;Signal;HPM_P1;HPM_P2
2022/02/09 00:04:55;;;;;;;4.88;2.70;;;11.10;87.00;;;;;;5114735;28;20202;-88
2022/02/09 00:07:31;;;;;;;3.20;2.95;;;11.00;86.50;;;;;;5097029;28;20179;-88
2022/02/09 00:10:04;;;;;;;4.18;2.75;;;11.10;86.60;;;;;;5115362;28;20171;-88
2022/02/09 00:12:46;;;;;;;3.08;2.30;;;11.00;86.10;;;;;;5114243;28;20659;-88
2022/02/09 00:15:33;;;;;;;2.38;2.17;;;11.10;85.60;;;;;;5096825;28;20226;-88
2022/02/09 00:21:05;;;;;;;2.72;2.53;;;11.00;85.10;;;;;;5117601;27;20202;-88
2022/02/09 00:38:13;;;;;;;2.95;2.33;;;11.00;84.80;;;;;;5116183;28;20817;-88
2022/02/09 01:55:53;;;;;;;5.78;4.20;;;10.80;85.90;;;;;;5113761;28;20729;-89
2022/02/09 01:58:20;;;;;;;10.80;4.00;;;10.90;85.80;;;;;;5104967;28;20671;-89
2022/02/09 02:00:47;;;;;;;5.82;3.78;;;10.90;85.40;;;;;;5104741;28;20435;-90
2022/02/09 02:03:13;;;;;;;4.18;3.88;;;10.80;84.90;;;;;;5121713;28;20191;-89
2022/02/09 02:05:38;;;;;;;5.30;3.63;;;10.70;85.30;;;;;;5104265;28;20221;-89
2022/02/09 02:08:07;;;;;;;6.57;4.90;;;10.80;85.20;;;;;;5102823;28;20174;-89
2022/02/09 02:10:49;;;;;;;4.38;3.55;;;10.80;85.00;;;;;;5105588;28;20432;-90
2022/02/09 02:13:48;;;;;;;4.90;3.63;;;10.80;84.70;;;;;;5082638;28;20214;-89
2022/02/09 02:19:04;;;;;;;6.40;4.05;;;10.90;84.70;;;;;;5123277;28;20197;-89
2022/02/09 02:22:03;;;;;;;5.65;4.15;;;10.80;84.60;;;;;;5114565;28;20166;-86
2022/02/09 03:15:25;;;;;;;10.30;4.03;;;10.70;83.30;;;;;;5115812;28;20229;-89
2022/02/09 03:20:45;;;;;;;5.95;3.35;;;10.80;83.00;;;;;;5123609;27;20234;-89
2022/02/09 03:23:40;;;;;;;4.45;3.25;;;10.90;82.60;;;;;;5112542;28;20222;-89
2022/02/09 03:55:22;;;;;;;3.10;1.75;;;10.90;81.00;;;;;;5116275;28;20198;-89
2022/02/09 03:57:48;;;;;;;2.25;1.60;;;11.00;80.40;;;;;;5097925;28;20187;-86
2022/02/09 04:00:19;;;;;;;2.07;1.60;;;10.70;80.30;;;;;;5138496;28;20254;-88
2022/02/09 04:02:57;;;;;;;8.43;1.80;;;10.80;80.20;;;;;;5116123;28;20445;-88
2022/02/09 04:05:23;;;;;;;3.08;1.10;;;10.70;80.30;;;;;;5097405;28;20233;-88
2022/02/09 04:07:49;;;;;;;2.00;1.13;;;10.70;80.30;;;;;;5115735;28;20183;-88
2022/02/09 04:10:21;;;;;;;2.23;1.50;;;10.80;80.60;;;;;;5097704;28;20643;-89
2022/02/09 04:13:11;;;;;;;2.72;1.52;;;10.70;80.70;;;;;;5115150;28;20217;-89
2022/02/09 04:16:02;;;;;;;1.92;1.40;;;10.60;80.90;;;;;;5115268;28;20241;-87
2022/02/09 04:37:42;;;;;;;1.70;1.50;;;10.80;79.30;;;;;;5116252;28;20266;-88
2022/02/09 04:40:13;;;;;;;2.08;1.98;;;10.80;79.20;;;;;;5096871;28;20163;-88
2022/02/09 04:43:07;;;;;;;5.68;2.47;;;10.80;79.40;;;;;;5096327;28;20178;-89
2022/02/09 04:51:12;;;;;;;5.60;4.17;;;10.80;80.20;;;;;;5117997;28;20254;-89
2022/02/09 04:56:40;;;;;;;5.40;4.00;;;10.70;80.20;;;;;;5124266;28;20190;-89
2022/02/09 05:23:44;;;;;;;9.73;5.78;;;10.60;81.60;;;;;;5107987;28;20205;-88
2022/02/09 05:28:41;;;;;;;7.65;5.55;;;10.60;81.40;;;;;;5114843;28;20174;-89
2022/02/09 05:31:08;;;;;;;9.50;6.03;;;10.60;81.20;;;;;;5095784;28;20174;-89
2022/02/09 05:33:35;;;;;;;15.00;7.15;;;10.70;81.20;;;;;;5096147;28;20252;-89
2022/02/09 05:36:00;;;;;;;9.35;6.05;;;10.70;80.90;;;;;;5115494;28;20199;-89
2022/02/09 05:38:26;;;;;;;9.67;6.53;;;10.60;81.00;;;;;;5097555;28;20186;-87
2022/02/09 05:40:52;;;;;;;11.53;6.67;;;10.50;81.20;;;;;;5098604;28;20441;-89
2022/02/09 05:43:18;;;;;;;10.27;6.10;;;10.50;82.10;;;;;;5100008;28;20187;-88
2022/02/09 05:59:16;;;;;;;10.88;6.32;;;10.60;81.90;;;;;;5114551;28;20282;-89
2022/02/09 06:01:43;;;;;;;10.05;5.63;;;10.40;82.10;;;;;;5095288;28;20163;-88
2022/02/09 06:04:09;;;;;;;8.45;5.97;;;10.40;82.20;;;;;;5114047;28;20578;-88
2022/02/09 06:06:35;;;;;;;13.20;6.50;;;10.40;82.40;;;;;;5095265;28;20175;-88
2022/02/09 06:09:01;;;;;;;11.30;6.87;;;10.30;82.70;;;;;;5113666;28;20880;-88
2022/02/09 06:11:33;;;;;;;8.48;5.50;;;10.30;82.80;;;;;;5094960;28;20508;-88
2022/02/09 06:22:00;;;;;;;8.77;6.43;;;10.50;82.30;;;;;;5114371;28;20155;-88
2022/02/09 06:24:26;;;;;;;11.05;6.32;;;10.50;82.60;;;;;;5116103;28;20203;-88
2022/02/09 06:26:51;;;;;;;9.97;6.60;;;10.60;82.20;;;;;;5096922;28;20220;-88
2022/02/09 06:29:18;;;;;;;10.27;6.50;;;10.50;82.30;;;;;;5096121;28;20417;-88
2022/02/09 06:31:44;;;;;;;10.95;6.63;;;10.60;82.30;;;;;;5081489;28;20271;-88
2022/02/09 06:34:15;;;;;;;11.60;7.20;;;10.70;82.00;;;;;;5075993;28;20203;-88
2022/02/09 06:36:46;;;;;;;11.00;7.07;;;10.60;81.60;;;;;;5093754;28;20191;-88
2022/02/09 06:39:13;;;;;;;12.05;6.70;;;10.60;81.90;;;;;;5129796;28;20186;-88
2022/02/09 06:41:41;;;;;;;11.40;6.75;;;10.60;82.10;;;;;;5097057;28;20198;-89
2022/02/09 06:44:09;;;;;;;10.25;7.10;;;10.60;82.30;;;;;;5092646;28;20199;-89
2022/02/09 06:46:37;;;;;;;12.32;8.55;;;10.60;82.30;;;;;;5080978;28;20171;-89
2022/02/09 06:49:06;;;;;;;17.17;8.18;;;10.50;82.30;;;;;;5110036;28;20569;-89
2022/02/09 06:51:36;;;;;;;13.40;7.85;;;10.50;82.30;;;;;;5104387;28;20172;-89
2022/02/09 06:54:07;;;;;;;17.52;6.85;;;10.60;82.20;;;;;;5110774;28;20262;-89
2022/02/09 06:56:44;;;;;;;13.82;8.13;;;10.60;82.20;;;;;;5115935;28;20242;-89
2022/02/09 06:59:13;;;;;;;17.40;7.78;;;10.70;82.20;;;;;;5102817;28;20377;-88
2022/02/09 07:01:39;;;;;;;12.93;8.45;;;10.80;81.90;;;;;;5097223;28;20175;-89
2022/02/09 07:04:06;;;;;;;10.68;6.95;;;10.70;81.80;;;;;;5122090;28;20199;-88
2022/02/09 07:06:32;;;;;;;11.23;7.18;;;10.70;81.90;;;;;;5099132;28;20175;-89
2022/02/09 07:08:58;;;;;;;16.33;7.57;;;10.80;81.80;;;;;;5090659;28;20175;-88
2022/02/09 07:11:24;;;;;;;13.32;7.07;;;10.80;81.90;;;;;;5097960;28;20178;-89
2022/02/09 07:14:08;;;;;;;10.57;6.80;;;10.90;81.70;;;;;;5097813;28;20214;-88
2022/02/09 07:16:33;;;;;;;13.23;7.70;;;10.90;81.70;;;;;;5099193;28;20167;-89
2022/02/09 07:18:59;;;;;;;10.33;7.20;;;10.90;81.30;;;;;;5101812;28;20175;-89
2022/02/09 07:21:30;;;;;;;16.80;8.27;;;10.80;81.00;;;;;;5108312;28;20187;-90
2022/02/09 07:23:58;;;;;;;12.60;8.15;;;10.70;81.10;;;;;;5099128;28;20278;-90
2022/02/09 07:28:52;;;;;;;14.68;9.43;;;10.80;80.50;;;;;;5118872;28;20195;-88
2022/02/09 07:31:19;;;;;;;11.17;6.70;;;10.90;80.10;;;;;;5095678;28;20576;-89
2022/02/09 07:33:45;;;;;;;10.95;6.68;;;11.00;79.80;;;;;;5098998;28;20440;-90
2022/02/09 07:36:12;;;;;;;11.40;6.90;;;11.10;79.80;;;;;;5099962;28;20203;-90
2022/02/09 07:38:40;;;;;;;13.88;7.90;;;11.00;79.40;;;;;;5105028;28;20274;-89
2022/02/09 07:41:07;;;;;;;11.27;6.82;;;10.90;79.20;;;;;;5101827;28;20200;-89
2022/02/09 07:51:38;;;;;;;9.13;5.63;;;10.90;78.70;;;;;;5118935;28;20196;-89
2022/02/09 07:54:02;;;;;;;9.15;6.00;;;10.80;78.80;;;;;;5116703;28;20226;-89
2022/02/09 07:56:31;;;;;;;11.40;6.35;;;10.80;78.90;;;;;;5105901;28;20217;-90
2022/02/09 07:58:56;;;;;;;9.00;5.30;;;10.80;78.70;;;;;;5108080;28;20175;-89
2022/02/09 08:01:23;;;;;;;7.60;4.90;;;10.80;78.70;;;;;;5099002;28;20213;-89
2022/02/09 08:03:50;;;;;;;8.23;5.35;;;10.90;78.70;;;;;;5102871;28;20191;-89
2022/02/09 08:06:17;;;;;;;7.55;4.90;;;11.10;78.30;;;;;;5099288;28;20620;-89
2022/02/09 08:08:45;;;;;;;8.50;5.85;;;11.20;77.40;;;;;;5119631;28;20262;-89
2022/02/09 08:11:28;;;;;;;7.20;4.93;;;11.10;77.10;;;;;;5117860;28;20167;-89
2022/02/09 08:32:52;;;;;;;10.30;5.00;;;11.10;76.40;;;;;;5116824;28;20222;-89
2022/02/09 08:35:18;;;;;;;6.80;4.30;;;11.10;76.20;;;;;;5099767;28;20210;-89
2022/02/09 08:37:44;;;;;;;8.87;5.40;;;11.30;76.40;;;;;;5101847;28;20167;-89
2022/02/09 08:40:14;;;;;;;11.20;5.05;;;11.40;76.00;;;;;;5103512;28;20500;-89
2022/02/09 08:42:41;;;;;;;9.63;6.25;;;11.40;75.50;;;;;;5098027;28;20662;-89
2022/02/09 08:45:08;;;;;;;7.05;5.05;;;11.30;75.40;;;;;;5097939;28;20179;-89
2022/02/09 08:47:34;;;;;;;6.78;5.43;;;11.40;75.00;;;;;;5097713;28;20793;-89
2022/02/09 08:50:00;;;;;;;9.18;5.07;;;11.50;74.70;;;;;;5116933;28;20182;-89
2022/02/09 08:52:26;;;;;;;7.75;5.68;;;11.50;74.80;;;;;;5115185;28;20573;-89
2022/02/09 08:54:52;;;;;;;6.97;4.80;;;11.50;74.50;;;;;;5116345;28;20744;-89
2022/02/09 08:57:20;;;;;;;7.95;5.55;;;11.60;74.50;;;;;;5097541;28;20175;-89
2022/02/09 08:59:48;;;;;;;8.10;4.72;;;11.70;74.40;;;;;;5097637;28;20203;-89
2022/02/09 09:02:17;;;;;;;6.15;4.93;;;11.40;74.40;;;;;;5116141;28;20167;-89
2022/02/09 09:04:50;;;;;;;5.30;4.65;;;11.50;74.30;;;;;;5097581;28;20210;-89
2022/02/09 09:07:22;;;;;;;6.93;4.68;;;11.50;74.30;;;;;;5099161;28;20658;-89
2022/02/09 09:59:01;;;;;;;7.18;5.65;;;12.10;72.90;;;;;;5107751;28;20308;-89
2022/02/09 10:34:25;;;;;;;9.23;5.80;;;12.50;72.50;;;;;;5114154;28;20195;-89
2022/02/09 10:36:54;;;;;;;9.23;5.03;;;12.60;72.10;;;;;;5115191;28;20162;-89
2022/02/09 10:39:32;;;;;;;6.03;4.85;;;12.80;71.90;;;;;;5100849;28;20229;-89
2022/02/09 10:42:14;;;;;;;9.05;4.80;;;12.80;71.50;;;;;;5100445;28;20592;-89
2022/02/09 10:44:48;;;;;;;9.52;5.45;;;12.60;70.80;;;;;;5100220;28;20295;-89
2022/02/09 10:47:20;;;;;;;8.77;5.35;;;12.60;71.00;;;;;;5118899;28;20160;-89
2022/02/09 10:50:36;;;;;;;9.40;4.93;;;12.80;71.10;;;;;;5089644;28;20179;-89
2022/02/09 10:53:04;;;;;;;6.50;4.82;;;12.80;70.90;;;;;;5088961;28;20208;-89
2022/02/09 10:55:34;;;;;;;10.45;5.38;;;12.80;70.70;;;;;;5087917;28;20578;-90
2022/02/09 10:58:07;;;;;;;8.43;5.15;;;12.90;70.40;;;;;;5114211;28;20183;-90
2022/02/09 11:00:33;;;;;;;14.55;5.13;;;12.80;70.40;;;;;;5122637;28;20179;-89
2022/02/09 11:02:59;;;;;;;7.77;5.60;;;12.80;70.60;;;;;;5102495;28;20191;-90
2022/02/09 11:05:25;;;;;;;12.18;6.28;;;12.90;71.50;;;;;;5100813;28;20531;-88
2022/02/09 11:07:54;;;;;;;9.75;5.18;;;12.90;70.90;;;;;;5100802;28;20720;-89
2022/02/09 11:10:22;;;;;;;8.40;5.50;;;12.90;70.00;;;;;;5100484;28;20179;-89
2022/02/09 11:12:50;;;;;;;14.95;5.95;;;13.00;70.40;;;;;;5099651;28;20214;-90
2022/02/09 11:15:18;;;;;;;7.03;4.93;;;13.30;70.10;;;;;;5099601;28;20828;-89
2022/02/09 11:17:47;;;;;;;6.47;5.15;;;13.30;69.30;;;;;;5099283;28;20179;-89
2022/02/09 11:20:27;;;;;;;8.32;4.70;;;13.10;69.50;;;;;;5100283;28;20179;-89
2022/02/09 11:22:53;;;;;;;10.82;5.43;;;13.20;69.50;;;;;;5100977;28;20199;-88
2022/02/09 11:25:53;;;;;;;9.97;4.70;;;13.20;69.40;;;;;;5118606;28;20209;-88
2022/02/09 11:28:26;;;;;;;9.15;5.43;;;13.00;69.70;;;;;;5109834;28;20416;-87
2022/02/09 11:31:07;;;;;;;8.35;4.65;;;12.90;70.00;;;;;;5097973;28;20186;-88
2022/02/09 11:33:55;;;;;;;13.10;4.80;;;13.00;70.40;;;;;;5117313;28;20199;-89
2022/02/09 11:39:17;;;;;;;9.93;4.32;;;13.30;69.70;;;;;;5118398;28;20175;-88
2022/02/09 11:41:59;;;;;;;6.25;4.03;;;13.10;69.40;;;;;;5098849;28;20172;-87
2022/02/09 11:44:53;;;;;;;6.85;3.42;;;13.40;69.00;;;;;;5092184;28;20625;-87
2022/02/09 11:58:50;;;;;;;8.77;4.53;;;13.70;72.20;;;;;;5118360;28;20183;-87
2022/02/09 12:09:47;;;;;;;8.10;4.20;;;13.40;69.90;;;;;;5117956;28;20227;-87
2022/02/09 12:12:19;;;;;;;7.82;4.57;;;13.40;70.20;;;;;;5100223;28;20199;-87
2022/02/09 12:15:43;;;;;;;6.18;4.10;;;13.60;70.10;;;;;;5099618;28;20590;-87
2022/02/09 12:20:23;;;;;;;11.75;4.85;;;13.70;69.50;;;;;;5127535;28;20207;-88
2022/02/09 12:23:07;;;;;;;5.78;4.45;;;13.60;69.30;;;;;;5106441;28;20226;-87
2022/02/09 12:25:44;;;;;;;8.80;4.50;;;13.60;69.00;;;;;;5105193;28;20160;-88
2022/02/09 12:28:22;;;;;;;6.75;3.78;;;13.60;69.40;;;;;;5083490;28;20176;-87
2022/02/09 12:30:49;;;;;;;6.45;5.03;;;13.50;69.70;;;;;;5123054;28;20270;-87
2022/02/09 12:33:25;;;;;;;9.15;4.80;;;13.60;69.50;;;;;;5104662;28;20663;-88
2022/02/09 12:35:51;;;;;;;5.50;3.72;;;13.60;69.50;;;;;;5120796;28;20285;-88
2022/02/09 12:38:31;;;;;;;6.22;4.68;;;13.70;69.00;;;;;;5104925;28;20175;-87
2022/02/09 12:41:15;;;;;;;9.52;4.57;;;13.60;68.40;;;;;;5100216;28;20183;-88
2022/02/09 12:43:52;;;;;;;6.00;4.15;;;13.60;68.30;;;;;;5098280;28;20286;-88
2022/02/09 12:46:21;;;;;;;8.48;4.28;;;13.50;68.50;;;;;;5101641;28;20182;-89
2022/02/09 12:48:49;;;;;;;9.90;4.70;;;13.50;68.90;;;;;;5097056;28;20183;-88
2022/02/09 12:51:28;;;;;;;5.90;3.90;;;13.50;69.00;;;;;;5100902;28;20226;-88
2022/02/09 12:53:55;;;;;;;4.45;3.67;;;13.50;69.10;;;;;;5123450;28;20199;-88
2022/02/09 12:56:32;;;;;;;8.45;4.30;;;13.60;69.50;;;;;;5098998;28;20203;-88
2022/02/09 12:59:12;;;;;;;6.13;3.97;;;13.70;69.50;;;;;;5116526;28;20160;-89
2022/02/09 13:01:57;;;;;;;12.88;5.55;;;13.90;69.00;;;;;;5111256;28;20254;-88
2022/02/09 13:04:28;;;;;;;10.75;5.53;;;13.90;68.40;;;;;;5097881;28;20240;-89
2022/02/09 13:06:54;;;;;;;7.32;5.18;;;14.00;67.50;;;;;;5098275;28;20189;-89
2022/02/09 13:09:20;;;;;;;9.60;5.03;;;13.90;67.70;;;;;;5116302;28;20630;-87
2022/02/09 13:11:45;;;;;;;6.13;4.20;;;13.80;68.10;;;;;;5098507;28;20429;-88
2022/02/09 13:14:16;;;;;;;12.27;5.40;;;13.70;68.70;;;;;;5089903;28;20685;-88
2022/02/09 14:47:58;;;;;;;7.70;4.47;;;13.90;65.70;;;;;;5115533;28;20194;-88
2022/02/09 14:53:04;;;;;;;6.03;4.30;;;14.30;65.70;;;;;;5117054;28;20199;-90
2022/02/09 14:55:56;;;;;;;4.50;4.10;;;14.40;64.80;;;;;;5099685;28;20310;-90
2022/02/09 14:58:25;;;;;;;6.85;5.10;;;14.50;64.60;;;;;;5103470;28;20178;-90
2022/02/09 15:11:52;;;;;;;9.15;4.18;;;14.40;64.40;;;;;;5110894;28;20183;-90
2022/02/09 15:14:34;;;;;;;10.63;5.28;;;14.40;64.50;;;;;;5114761;28;20266;-90
2022/02/09 15:17:23;;;;;;;11.40;5.32;;;14.30;64.70;;;;;;5102453;28;20658;-90
2022/02/09 15:22:51;;;;;;;7.70;4.78;;;14.00;64.60;;;;;;5122283;28;20194;-89
2022/02/09 15:25:20;;;;;;;11.73;4.65;;;14.20;64.70;;;;;;5106196;28;20184;-89
2022/02/09 15:27:48;;;;;;;4.78;4.30;;;14.20;65.10;;;;;;5104880;28;20190;-89
2022/02/09 15:30:14;;;;;;;6.50;4.15;;;14.50;64.70;;;;;;5103469;28;20194;-89
2022/02/09 15:32:44;;;;;;;7.40;4.80;;;14.40;64.20;;;;;;5082295;28;20184;-89
2022/02/09 15:35:23;;;;;;;6.55;4.60;;;14.50;64.50;;;;;;5081457;28;20679;-89
2022/02/09 15:38:09;;;;;;;6.15;4.32;;;14.60;64.20;;;;;;5082665;28;20176;-90
2022/02/09 15:40:49;;;;;;;6.68;3.95;;;14.60;63.80;;;;;;5084683;28;20163;-89
2022/02/09 16:05:35;;;;;;;8.15;6.10;;;14.00;65.90;;;;;;5104384;28;20254;-89
2022/02/09 16:08:38;;;;;;;11.18;5.07;;;13.60;66.70;;;;;;5126607;28;20656;-90
2022/02/09 16:11:34;;;;;;;9.70;4.80;;;13.60;67.10;;;;;;5118065;28;20205;-89
2022/02/09 16:24:15;;;;;;;12.50;5.63;;;13.40;68.70;;;;;;5117876;28;20209;-90
2022/02/09 16:48:18;;;;;;;11.10;6.97;;;12.80;70.20;;;;;;5096655;27;20190;-89
2022/02/09 16:50:49;;;;;;;9.02;6.70;;;12.70;70.40;;;;;;5126203;27;20175;-88
2022/02/09 17:20:33;;;;;;;10.25;6.70;;;12.70;70.20;;;;;;5102638;27;20654;-89
2022/02/09 17:22:59;;;;;;;12.35;5.93;;;12.60;70.50;;;;;;5124163;27;20734;-90
2022/02/09 17:25:25;;;;;;;11.23;6.90;;;12.60;71.40;;;;;;5098615;28;20210;-88
2022/02/09 17:27:50;;;;;;;10.67;7.00;;;12.60;70.90;;;;;;5116379;28;20841;-91
2022/02/09 17:35:17;;;;;;;11.85;6.47;;;12.50;70.60;;;;;;5116873;28;20207;-90
2022/02/09 17:54:06;;;;;;;16.73;8.65;;;12.60;70.50;;;;;;5118464;28;20213;-87
2022/02/09 17:56:40;;;;;;;9.35;6.50;;;12.60;70.80;;;;;;5101213;28;20250;-89
2022/02/09 17:59:12;;;;;;;9.73;6.80;;;12.70;70.90;;;;;;5100318;28;20168;-88
2022/02/09 18:01:38;;;;;;;10.50;7.13;;;12.70;70.50;;;;;;5099576;28;20314;-89
2022/02/09 18:04:04;;;;;;;13.73;9.07;;;12.60;70.70;;;;;;5098752;28;20222;-88
2022/02/09 18:06:32;;;;;;;11.93;8.03;;;12.70;71.60;;;;;;5100074;28;20187;-89
2022/02/09 18:09:08;;;;;;;9.18;6.80;;;12.90;70.50;;;;;;5099665;28;20183;-90
2022/02/09 18:25:39;;;;;;;10.80;6.25;;;12.80;70.70;;;;;;5114171;28;20189;-89
2022/02/09 19:03:17;;;;;;;8.07;5.85;;;12.80;69.00;;;;;;5118137;28;20622;-87
2022/02/09 19:05:47;;;;;;;17.38;6.78;;;12.90;69.40;;;;;;5099620;28;20832;-87
2022/02/09 19:08:31;;;;;;;15.52;7.82;;;13.00;69.40;;;;;;5080381;28;20191;-86
2022/02/09 19:19:50;;;;;;;13.73;8.13;;;12.30;71.20;;;;;;5119443;28;20236;-87
2022/02/09 19:49:33;;;;;;;13.40;8.63;;;12.40;71.10;;;;;;5126987;28;20164;-88
2022/02/09 19:52:01;;;;;;;8.68;7.80;;;12.50;70.90;;;;;;5124415;28;20202;-88
2022/02/09 19:54:42;;;;;;;12.15;9.00;;;12.50;70.90;;;;;;5102568;28;20198;-89
2022/02/09 19:57:09;;;;;;;11.77;9.15;;;12.50;71.00;;;;;;5100334;28;20191;-86
2022/02/09 19:59:38;;;;;;;12.05;8.02;;;12.50;70.50;;;;;;5099545;28;20175;-88
2022/02/09 20:02:07;;;;;;;12.15;9.38;;;12.50;70.50;;;;;;5098696;28;20175;-88
2022/02/09 20:04:34;;;;;;;16.88;10.90;;;12.50;70.70;;;;;;5099232;28;20637;-87
2022/02/09 20:07:01;;;;;;;14.82;9.55;;;12.60;70.70;;;;;;5101447;28;20609;-86
2022/02/09 20:09:27;;;;;;;14.73;9.77;;;12.60;70.30;;;;;;5122132;28;20186;-89
2022/02/09 20:11:53;;;;;;;14.00;8.93;;;12.50;70.10;;;;;;5101552;28;20183;-86
2022/02/09 20:14:19;;;;;;;11.02;8.00;;;12.60;70.30;;;;;;5118699;28;20490;-87
2022/02/09 20:16:45;;;;;;;15.48;8.80;;;12.40;70.20;;;;;;5100628;28;20187;-87
2022/02/09 20:19:12;;;;;;;13.82;9.80;;;12.50;70.30;;;;;;5102520;28;20202;-88
2022/02/09 20:21:38;;;;;;;14.95;9.60;;;12.40;70.20;;;;;;5102918;28;20183;-87
2022/02/09 20:24:07;;;;;;;17.17;9.13;;;12.50;70.40;;;;;;5105772;28;20202;-88
2022/02/09 20:26:33;;;;;;;11.55;7.47;;;12.60;70.50;;;;;;5105452;28;20207;-85
2022/02/09 20:29:04;;;;;;;12.60;7.88;;;12.60;70.20;;;;;;5125242;28;20167;-86
2022/02/09 20:31:42;;;;;;;15.32;8.32;;;12.60;70.30;;;;;;5122351;28;20186;-86
2022/02/09 20:34:19;;;;;;;10.95;7.65;;;12.50;70.50;;;;;;5101121;28;20227;-86
2022/02/09 20:36:46;;;;;;;11.10;7.75;;;12.50;70.60;;;;;;5120374;28;20178;-87
2022/02/09 20:39:18;;;;;;;12.60;8.57;;;12.50;70.80;;;;;;5102052;28;20172;-86
2022/02/09 20:41:45;;;;;;;12.10;8.40;;;12.80;70.00;;;;;;5122112;28;20721;-86
2022/02/09 20:44:36;;;;;;;10.55;7.72;;;12.90;69.00;;;;;;5101408;28;20701;-86
2022/02/09 20:47:02;;;;;;;11.60;7.82;;;12.80;68.40;;;;;;5119770;28;20143;-86
2022/02/09 20:49:28;;;;;;;13.20;7.77;;;12.70;68.80;;;;;;5121506;28;20244;-86
2022/02/09 20:51:53;;;;;;;12.97;8.50;;;12.60;68.70;;;;;;5103834;28;20661;-86
2022/02/09 20:54:19;;;;;;;12.53;7.83;;;12.40;68.90;;;;;;5108434;28;20451;-86
2022/02/09 20:56:45;;;;;;;12.80;8.67;;;12.40;69.40;;;;;;5107130;28;20416;-86
2022/02/09 20:59:14;;;;;;;11.73;8.27;;;12.10;70.00;;;;;;5101686;28;20412;-86
2022/02/09 21:01:50;;;;;;;13.30;8.43;;;12.00;71.20;;;;;;5100390;28;20457;-86
2022/02/09 21:04:19;;;;;;;12.30;8.40;;;12.20;71.40;;;;;;5101827;28;20614;-86
2022/02/09 21:54:47;;;;;;;16.10;10.90;;;12.20;73.50;;;;;;5115479;28;20221;-87
2022/02/09 22:16:31;;;;;;;17.63;11.60;;;12.30;72.40;;;;;;5099958;28;20253;-88
2022/02/09 22:27:31;;;;;;;21.67;14.00;;;12.20;72.90;;;;;;5099913;28;20174;-88
2022/02/09 22:49:17;;;;;;;26.77;14.73;;;12.00;74.00;;;;;;5086266;28;20647;-88
2022/02/09 22:54:31;;;;;;;24.52;13.68;;;12.10;74.10;;;;;;5137399;28;20396;-87
2022/02/09 22:56:57;;;;;;;22.85;15.02;;;12.20;74.20;;;;;;5110229;28;20195;-89
2022/02/09 23:01:53;;;;;;;24.10;15.73;;;12.10;74.20;;;;;;5114682;28;20175;-88
2022/02/09 23:09:49;;;;;;;21.50;13.27;;;12.10;74.70;;;;;;5118356;28;20266;-88
2022/02/09 23:16:01;;;;;;;24.25;13.30;;;12.10;74.60;;;;;;5083610;28;20203;-88
2022/02/09 23:53:58;;;;;;;21.67;14.25;;;11.80;75.40;;;;;;5117949;28;20256;-87
